Time;durP1;ratioP1;P1;durP2;ratioP2;P2;SDS_P1;SDS_P2;PMS_P1;PMS_P2;Temp;Humidity;BMP_temperature;BMP_pressure;BME280_temperature;BME280_humidity;BME280_pressure;Samples;Min_cycle;Max_cycle;Signal;HPM_P1;HPM_P2
2022/05/03 00:03:11;;;;;;;9.15;6.10;;;;;;;12.94;78.26;99616.38;12205183;19;20016;-82
2022/05/03 00:07:23;;;;;;;12.85;6.72;;;;;;;12.91;77.83;99621.59;12181179;19;20418;-82
2022/05/03 00:11:40;;;;;;;14.57;6.93;;;;;;;12.87;78.48;99612.19;12207916;19;20007;-80
2022/05/03 00:15:43;;;;;;;13.45;7.30;;;;;;;12.83;78.46;99611.09;12202619;19;20571;-80
2022/05/03 00:19:45;;;;;;;;;;;;;;;12.80;78.06;99609.69;12185472;19;20680;-80
2022/05/03 00:23:47;;;;;;;9.02;6.68;;;;;;;12.85;78.13;99606.09;12197714;19;19999;-82
2022/05/03 00:27:51;;;;;;;15.73;7.65;;;;;;;12.84;78.59;99601.69;12202820;19;20098;-82
2022/05/03 00:31:57;;;;;;;12.13;7.55;;;;;;;12.90;77.30;99601.41;12179898;19;20025;-83
2022/05/03 00:35:59;;;;;;;10.02;7.50;;;;;;;12.98;76.51;99594.56;12200304;19;20015;-82
2022/05/03 00:40:01;;;;;;;9.97;7.30;;;;;;;13.00;76.19;99595.13;12174027;19;20369;-84
2022/05/03 00:49:16;;;;;;;11.43;6.18;;;;;;;13.10;74.57;99594.31;12208452;19;20489;-82
2022/05/03 00:53:30;;;;;;;7.00;5.90;;;;;;;13.14;74.15;99584.34;12173202;19;20007;-80
2022/05/03 00:58:09;;;;;;;13.20;7.45;;;;;;;13.14;73.51;99585.19;12197642;19;20366;-81
2022/05/03 01:02:14;;;;;;;10.27;6.50;;;;;;;13.21;72.91;99584.94;12180677;19;20066;-80
2022/05/03 01:06:35;;;;;;;12.27;7.57;;;;;;;13.21;73.03;99591.31;12217736;19;20014;-80
2022/05/03 01:10:59;;;;;;;10.82;6.75;;;;;;;13.22;72.68;99592.97;12188858;19;20575;-80
2022/05/03 01:15:10;;;;;;;8.77;6.32;;;;;;;13.23;72.80;99597.38;12215176;19;20082;-82
2022/05/03 01:19:12;;;;;;;13.30;6.60;;;;;;;13.22;72.89;99592.97;12192877;19;20180;-82
2022/05/03 01:23:19;;;;;;;11.05;6.88;;;;;;;13.23;72.45;99588.25;12219189;19;20094;-81
2022/05/03 01:28:00;;;;;;;15.07;6.70;;;;;;;13.26;71.76;99593.28;12206706;19;20121;-81
2022/05/03 01:32:04;;;;;;;11.05;6.32;;;;;;;13.30;71.88;99594.41;12195778;19;20098;-81
2022/05/03 01:36:08;;;;;;;16.50;6.93;;;;;;;13.28;71.49;99591.06;12207029;19;20452;-81
2022/05/03 01:40:27;;;;;;;11.98;7.13;;;;;;;13.27;71.40;99594.94;12195044;19;21852;-81
2022/05/03 01:44:40;;;;;;;9.45;6.60;;;;;;;13.26;71.77;99603.50;12213575;19;20023;-81
2022/05/03 01:53:43;;;;;;;9.77;6.35;;;;;;;13.13;72.29;99593.78;12105409;19;2004961;-81
2022/05/03 01:58:22;;;;;;;10.48;6.85;;;;;;;13.04;72.78;99590.69;12203879;19;20019;-80
2022/05/03 02:02:51;;;;;;;11.32;7.25;;;;;;;12.95;73.20;99586.78;12107648;19;2004691;-81
2022/05/03 02:07:17;;;;;;;8.57;6.63;;;;;;;12.89;73.72;99593.41;12191381;19;20035;-82
2022/05/03 02:11:31;;;;;;;12.02;6.60;;;;;;;12.81;74.11;99588.41;12210155;19;20085;-81
2022/05/03 02:15:42;;;;;;;11.45;7.72;;;;;;;12.73;74.28;99595.25;12211891;19;20129;-82
2022/05/03 02:20:15;;;;;;;11.55;8.05;;;;;;;12.63;74.99;99585.00;12192769;19;20519;-81
2022/05/03 02:24:32;;;;;;;12.18;7.93;;;;;;;12.57;74.98;99591.59;12204263;19;20098;-82
2022/05/03 02:28:51;;;;;;;12.90;8.18;;;;;;;12.54;75.15;99595.72;12191842;19;20078;-81
2022/05/03 02:33:19;;;;;;;15.18;8.30;;;;;;;12.44;76.07;99597.63;12210533;19;20014;-82
2022/05/03 02:37:31;;;;;;;11.75;8.52;;;;;;;12.35;76.58;99597.28;12180678;19;20070;-80
2022/05/03 02:41:38;;;;;;;11.73;7.90;;;;;;;12.35;76.25;99593.69;12200606;19;20010;-81
2022/05/03 02:45:50;;;;;;;12.82;8.27;;;;;;;12.27;76.89;99593.06;12196462;19;20003;-81
2022/05/03 02:50:06;;;;;;;11.50;8.20;;;;;;;12.24;77.01;99592.78;12183184;19;20010;-81
2022/05/03 02:54:37;;;;;;;9.50;7.35;;;;;;;12.18;77.38;99594.69;12201036;19;20003;-82
2022/05/03 02:59:17;;;;;;;11.55;8.80;;;;;;;12.13;77.47;99597.41;12185643;19;20373;-80
2022/05/03 03:03:39;;;;;;;12.27;8.45;;;;;;;12.07;78.16;99601.22;12203932;19;20077;-81
2022/05/03 03:07:46;;;;;;;13.30;8.33;;;;;;;11.98;78.12;99600.88;12187877;19;20452;-80
2022/05/03 03:11:58;;;;;;;14.23;8.93;;;;;;;11.88;78.90;99599.97;12203091;19;20069;-81
2022/05/03 03:15:59;;;;;;;12.98;8.55;;;;;;;11.78;79.15;99600.69;12179038;19;20082;-80
2022/05/03 03:20:05;;;;;;;11.10;8.48;;;;;;;11.70;80.52;99613.03;12200611;19;20055;-82
2022/05/03 03:24:08;;;;;;;12.65;8.52;;;;;;;11.62;80.70;99613.50;12215592;19;20121;-81
2022/05/03 03:28:13;;;;;;;10.85;8.57;;;;;;;11.54;81.59;99606.56;12186406;19;20027;-81
2022/05/03 03:32:17;;;;;;;11.63;8.65;;;;;;;11.50;81.45;99607.31;12204659;19;20021;-80
2022/05/03 03:36:22;;;;;;;11.18;8.30;;;;;;;11.44;82.14;99611.97;12204117;19;20010;-82
2022/05/03 03:40:25;;;;;;;12.32;9.05;;;;;;;11.39;83.10;99615.50;12185498;19;20019;-82
2022/05/03 03:44:27;;;;;;;11.60;8.32;;;;;;;11.40;84.13;99617.16;12207809;19;20038;-82
2022/05/03 03:48:28;;;;;;;12.57;8.52;;;;;;;11.41;84.65;99613.31;12202633;19;20383;-82
2022/05/03 03:52:34;;;;;;;11.88;9.27;;;;;;;11.43;84.95;99621.34;12179603;19;20628;-81
2022/05/03 03:56:36;;;;;;;11.38;8.95;;;;;;;11.44;84.84;99611.97;12201198;19;20014;-80
2022/05/03 04:00:38;;;;;;;13.18;8.45;;;;;;;11.44;85.04;99600.91;12211208;19;20077;-82
2022/05/03 04:04:40;;;;;;;;;;;;;;;11.45;85.47;99615.53;12189165;19;20010;-81
2022/05/03 04:08:42;;;;;;;13.15;8.43;;;;;;;11.47;84.90;99619.72;12197196;19;19945;-81
2022/05/03 04:12:44;;;;;;;11.85;9.05;;;;;;;11.47;85.45;99621.66;12212503;19;20011;-80
2022/05/03 04:16:46;;;;;;;13.50;9.77;;;;;;;11.50;85.87;99621.13;12168043;19;20031;-84
2022/05/03 04:20:47;;;;;;;13.25;9.20;;;;;;;11.49;86.67;99623.06;12203809;19;20019;-81
2022/05/03 04:24:49;;;;;;;13.38;8.90;;;;;;;11.49;86.57;99619.47;12211642;19;20516;-80
2022/05/03 04:28:56;;;;;;;13.60;9.38;;;;;;;11.47;87.30;99616.13;12194623;19;20091;-81
2022/05/03 04:32:58;;;;;;;13.88;9.50;;;;;;;11.50;87.00;99621.13;12213701;19;20119;-81
2022/05/03 04:36:59;;;;;;;13.38;9.52;;;;;;;11.57;86.47;99632.78;12180092;19;20014;-80
2022/05/03 04:41:02;;;;;;;12.40;8.85;;;;;;;11.60;86.40;99632.25;12216485;19;20014;-82
2022/05/03 04:45:04;;;;;;;13.30;9.35;;;;;;;11.66;85.58;99625.72;12213645;19;20014;-81
2022/05/03 04:49:05;;;;;;;13.93;9.67;;;;;;;11.77;84.64;99627.44;12196068;19;20018;-82
2022/05/03 04:53:12;;;;;;;11.75;9.00;;;;;;;11.88;83.70;99635.88;12217639;19;20030;-81
2022/05/03 04:57:14;;;;;;;15.87;8.80;;;;;;;11.91;83.21;99627.06;12214264;19;20879;-82
2022/05/03 05:01:17;;;;;;;14.00;8.77;;;;;;;12.01;82.94;99630.72;12203078;19;20031;-82
2022/05/03 05:05:19;;;;;;;13.40;8.90;;;;;;;12.11;83.10;99637.44;12218251;19;23042;-81
2022/05/03 05:09:20;;;;;;;15.93;9.00;;;;;;;12.20;82.39;99641.38;12184245;19;20035;-82
2022/05/03 05:13:22;;;;;;;11.73;8.20;;;;;;;12.31;81.72;99649.50;12191110;19;20020;-81
2022/05/03 05:17:24;;;;;;;13.07;9.13;;;;;;;12.39;81.30;99652.84;12221321;19;20010;-80
2022/05/03 05:21:26;;;;;;;11.85;8.35;;;;;;;12.45;80.79;99640.72;12212974;19;20011;-80
2022/05/03 05:25:28;;;;;;;10.77;7.93;;;;;;;12.53;80.53;99651.28;12203018;19;20017;-79
2022/05/03 05:29:30;;;;;;;11.35;8.35;;;;;;;12.59;79.96;99647.44;12216927;19;20020;-78
2022/05/03 05:33:31;;;;;;;13.60;8.70;;;;;;;12.70;79.40;99656.63;12220164;19;20560;-80
2022/05/03 05:37:33;;;;;;;11.73;8.50;;;;;;;12.81;79.34;99657.53;12197335;19;20031;-80
2022/05/03 05:41:35;;;;;;;12.95;8.55;;;;;;;12.92;78.89;99656.47;12220460;19;20017;-80
2022/05/03 05:45:37;;;;;;;10.68;7.57;;;;;;;13.03;78.40;99655.44;12218272;19;20017;-80
2022/05/03 05:49:39;;;;;;;16.02;8.60;;;;;;;13.03;77.57;99660.97;12196444;19;20015;-80
2022/05/03 05:53:42;;;;;;;13.02;8.50;;;;;;;13.14;77.49;99656.28;12227530;19;20468;-81
2022/05/03 05:57:43;;;;;;;14.15;8.70;;;;;;;13.29;77.13;99655.53;12216864;19;20463;-80
2022/05/03 06:01:45;;;;;;;15.20;8.23;;;;;;;13.40;76.61;99649.78;12200844;19;20011;-80
2022/05/03 06:05:48;;;;;;;12.18;8.00;;;;;;;13.52;76.03;99657.81;12223504;19;20022;-80
2022/05/03 06:09:51;;;;;;;12.93;8.48;;;;;;;13.64;76.04;99666.72;12236899;19;20010;-83
2022/05/03 06:13:54;;;;;;;13.80;8.20;;;;;;;13.81;75.34;99671.19;12220303;19;20077;-82
2022/05/03 06:17:56;;;;;;;12.00;8.40;;;;;;;13.98;75.63;99671.78;12214317;19;20010;-83
2022/05/03 06:21:58;;;;;;;10.88;7.97;;;;;;;14.12;75.27;99672.84;12186722;19;20006;-83
2022/05/03 06:25:59;;;;;;;12.95;8.27;;;;;;;14.24;74.73;99669.00;12213785;19;20006;-84
2022/05/03 06:30:03;;;;;;;12.35;8.07;;;;;;;14.35;73.98;99673.41;12213371;19;20074;-84
2022/05/03 06:34:06;;;;;;;11.80;8.20;;;;;;;14.42;74.24;99675.91;12184310;19;20013;-82
2022/05/03 06:38:08;;;;;;;10.52;8.27;;;;;;;14.61;73.86;99676.22;12204458;19;20011;-83
2022/05/03 06:42:10;;;;;;;10.75;7.38;;;;;;;14.79;73.07;99673.66;12202552;19;20023;-82
2022/05/03 06:46:11;;;;;;;10.10;5.93;;;;;;;14.90;72.11;99680.03;12185559;19;20007;-82
2022/05/03 06:50:14;;;;;;;11.27;7.70;;;;;;;15.10;71.81;99681.88;12206944;19;20018;-82
2022/05/03 06:54:15;;;;;;;14.50;8.53;;;;;;;15.17;70.29;99679.66;12209973;19;20024;-82
2022/05/03 06:58:17;;;;;;;15.07;8.63;;;;;;;15.35;69.76;99683.75;12190777;19;20014;-82
2022/05/03 07:02:19;;;;;;;12.95;8.18;;;;;;;15.46;69.99;99690.88;12205855;19;20014;-82
2022/05/03 07:06:21;;;;;;;9.70;7.65;;;;;;;15.63;69.57;99701.66;12211615;19;20011;-82
2022/05/03 07:10:23;;;;;;;9.27;7.30;;;;;;;15.71;68.70;99700.25;12189878;19;20006;-82
2022/05/03 07:14:25;;;;;;;11.20;7.10;;;;;;;15.79;68.57;99698.81;12226091;19;20014;-83
2022/05/03 07:22:47;;;;;;;11.73;7.10;;;;;;;16.03;67.88;99708.13;12204799;19;20003;-83
2022/05/03 07:26:49;;;;;;;11.75;8.68;;;;;;;16.19;67.08;99711.59;12226096;19;20597;-84
2022/05/03 07:30:51;;;;;;;12.90;8.37;;;;;;;16.16;67.00;99717.75;12215970;19;20014;-83
2022/05/03 07:34:52;;;;;;;13.27;8.15;;;;;;;16.15;67.36;99722.50;12218843;19;20031;-83
2022/05/03 07:38:54;;;;;;;14.27;8.25;;;;;;;16.23;67.00;99721.03;12223271;19;20011;-82
2022/05/03 07:42:56;;;;;;;11.27;7.72;;;;;;;16.15;67.45;99733.59;12203890;19;20015;-82
2022/05/03 07:46:58;;;;;;;12.70;7.70;;;;;;;16.29;66.52;99730.97;12222366;19;20028;-82
2022/05/03 07:50:59;;;;;;;9.18;7.10;;;;;;;16.59;65.83;99732.69;12216375;19;20024;-83
2022/05/03 07:55:02;;;;;;;12.75;7.55;;;;;;;16.82;64.95;99738.63;12193805;19;20471;-83
2022/05/03 07:59:06;;;;;;;11.52;7.50;;;;;;;16.70;63.69;99741.78;12209493;19;20007;-82
2022/05/03 08:03:08;;;;;;;11.43;8.05;;;;;;;17.02;63.45;99732.03;12210640;19;20591;-82
2022/05/03 08:07:10;;;;;;;12.82;7.47;;;;;;;17.18;62.96;99736.31;12197832;19;20012;-83
2022/05/03 08:11:11;;;;;;;9.85;7.00;;;;;;;17.45;62.23;99735.72;12218166;19;20018;-86
2022/05/03 08:15:13;;;;;;;10.25;7.13;;;;;;;17.59;61.05;99735.00;12217293;19;20011;-82
2022/05/03 08:19:15;;;;;;;13.00;6.88;;;;;;;17.76;61.14;99738.13;12195767;19;20031;-82
2022/05/03 08:23:17;;;;;;;9.73;6.82;;;;;;;18.21;60.50;99744.19;12209186;19;20022;-83
2022/05/03 08:27:19;;;;;;;10.38;7.63;;;;;;;18.42;58.30;99739.13;12217198;19;20035;-82
2022/05/03 08:31:21;;;;;;;10.43;6.60;;;;;;;18.28;58.45;99736.25;12190891;19;20006;-83
2022/05/03 08:35:24;;;;;;;9.63;6.60;;;;;;;18.40;58.51;99742.19;12212347;19;20002;-82
2022/05/03 08:43:46;;;;;;;11.60;7.30;;;;;;;18.93;57.77;99738.28;12197429;19;20010;-82
2022/05/03 08:47:48;;;;;;;9.63;7.13;;;;;;;19.11;56.08;99740.16;12214947;19;20747;-79
2022/05/03 08:51:52;;;;;;;9.57;6.63;;;;;;;19.18;55.16;99742.53;12211888;19;20398;-81
2022/05/03 08:55:54;;;;;;;10.25;6.93;;;;;;;19.45;55.42;99736.13;12213903;19;20020;-82
2022/05/03 08:59:56;;;;;;;9.15;5.97;;;;;;;19.75;55.01;99745.03;12212064;19;20018;-81
2022/05/03 09:03:58;;;;;;;12.02;6.60;;;;;;;19.77;54.20;99737.19;12189152;19;20026;-79
2022/05/03 09:08:01;;;;;;;8.37;6.50;;;;;;;19.99;53.47;99736.44;12207519;19;20010;-80
2022/05/03 09:12:04;;;;;;;9.85;6.53;;;;;;;20.07;53.17;99741.25;12214863;19;20038;-82
2022/05/03 09:16:17;;;;;;;13.43;6.63;;;;;;;20.11;52.26;99741.44;12192822;19;20006;-80
2022/05/03 09:24:57;;;;;;;6.53;5.25;;;;;;;20.37;51.34;99744.47;12209635;19;20099;-80
2022/05/03 09:29:02;;;;;;;9.52;5.45;;;;;;;20.44;50.28;99737.31;12208095;19;20014;-83
2022/05/03 09:33:04;;;;;;;7.60;6.10;;;;;;;19.99;50.66;99744.81;12218043;19;20015;-81
2022/05/03 09:37:09;;;;;;;11.10;5.75;;;;;;;20.05;51.81;99746.34;12198790;19;20027;-81
2022/05/03 09:41:16;;;;;;;6.68;5.32;;;;;;;20.38;51.54;99748.94;12205661;19;20015;-80
2022/05/03 09:45:21;;;;;;;8.60;5.25;;;;;;;20.84;50.48;99748.63;12214607;19;20011;-80
2022/05/03 09:49:35;;;;;;;7.07;4.57;;;;;;;21.13;48.97;99745.34;12185697;19;20003;-80
2022/05/03 09:53:37;;;;;;;7.70;5.00;;;;;;;21.61;49.02;99743.75;12219401;19;20007;-82
2022/05/03 09:57:41;;;;;;;8.20;5.43;;;;;;;22.22;47.44;99741.94;12206408;19;20034;-82
2022/05/03 10:01:42;;;;;;;7.85;5.22;;;;;;;22.39;46.44;99729.03;12199535;19;20038;-82
2022/05/03 10:05:45;;;;;;;8.37;5.53;;;;;;;22.04;45.72;99735.44;12216547;19;20014;-82
2022/05/03 10:09:48;;;;;;;8.75;5.40;;;;;;;21.79;46.60;99728.63;12208006;19;20014;-81
2022/05/03 10:13:54;;;;;;;9.20;5.00;;;;;;;21.68;46.51;99727.28;12191886;19;20050;-83
2022/05/03 10:22:16;;;;;;;8.73;5.80;;;;;;;22.26;45.51;99720.47;12188097;19;20027;-81
2022/05/03 10:26:18;;;;;;;6.72;4.80;;;;;;;22.45;44.50;99720.13;12205749;19;20504;-82
2022/05/03 10:30:22;;;;;;;;;;;;;;;22.58;44.69;99717.47;12201381;19;20018;-82
2022/05/03 10:34:48;;;;;;;8.43;4.97;;;;;;;22.57;44.73;99710.19;12185813;19;19922;-79
2022/05/03 10:38:50;;;;;;;6.93;5.10;;;;;;;22.87;44.49;99703.50;12206512;19;20010;-82
2022/05/03 10:43:09;;;;;;;8.10;4.63;;;;;;;22.90;43.13;99707.66;12188383;19;20010;-83
2022/05/03 10:47:13;;;;;;;7.38;5.28;;;;;;;22.69;43.42;99707.53;12205903;19;20069;-83
2022/05/03 10:51:16;;;;;;;10.10;5.10;;;;;;;22.45;43.90;99700.47;12205897;19;20021;-83
2022/05/03 10:55:18;;;;;;;;;;;;;;;22.21;44.87;99706.59;12185914;19;20031;-80
2022/05/03 10:59:20;;;;;;;8.68;5.97;;;;;;;22.42;43.84;99698.31;12204850;19;21957;-82
2022/05/03 11:03:22;;;;;;;11.23;6.70;;;;;;;22.42;43.93;99686.25;12211246;19;20547;-80
2022/05/03 11:07:24;;;;;;;10.50;6.27;;;;;;;22.42;44.12;99689.06;12184154;19;20006;-82
2022/05/03 11:11:44;;;;;;;8.30;5.47;;;;;;;22.15;43.95;99685.41;12198325;19;20031;-81
2022/05/03 11:16:24;;;;;;;8.30;5.90;;;;;;;22.50;43.99;99677.00;12204885;19;20032;-82
2022/05/03 11:20:26;;;;;;;8.15;5.47;;;;;;;22.56;44.47;99672.06;12104955;19;2004634;-81
2022/05/03 11:24:31;;;;;;;10.50;5.47;;;;;;;23.05;43.73;99661.34;12216654;19;20006;-81
2022/05/03 11:28:34;;;;;;;11.30;5.40;;;;;;;22.73;43.06;99667.22;12186842;19;20073;-80
2022/05/03 11:32:42;;;;;;;;;;;;;;;21.76;44.53;99653.56;12215642;19;20078;-81
2022/05/03 11:36:50;;;;;;;8.25;5.35;;;;;;;22.01;44.29;99670.72;12209216;19;20525;-81
2022/05/03 11:40:52;;;;;;;9.10;6.00;;;;;;;22.82;44.08;99658.78;12183425;19;20717;-81
2022/05/03 11:44:53;;;;;;;12.13;6.10;;;;;;;23.64;41.85;99652.91;12202596;19;20759;-79
2022/05/03 11:49:00;;;;;;;8.33;6.13;;;;;;;24.21;40.54;99651.50;12179502;19;20097;-81
2022/05/03 11:57:49;;;;;;;8.82;5.53;;;;;;;25.01;38.00;99643.53;12190361;19;20029;-80
2022/05/03 12:02:10;;;;;;;;;;;;;;;24.64;37.92;99641.84;12188927;19;20007;-78
2022/05/03 12:06:12;;;;;;;10.23;5.55;;;;;;;23.48;39.60;99635.00;12210429;19;19918;-80
2022/05/03 12:10:21;;;;;;;8.57;5.05;;;;;;;23.89;39.86;99637.06;12179262;19;22198;-80
2022/05/03 12:14:32;;;;;;;7.60;5.47;;;;;;;24.89;38.20;99637.06;12209996;19;20457;-80
2022/05/03 12:18:41;;;;;;;6.10;5.30;;;;;;;25.80;35.70;99620.72;12192326;19;20014;-81
2022/05/03 12:22:43;;;;;;;5.97;4.63;;;;;;;26.48;34.97;99617.06;12180512;19;20831;-80
2022/05/03 12:26:45;;;;;;;6.70;5.30;;;;;;;27.27;33.75;99619.97;12201317;19;20018;-79
2022/05/03 12:30:57;;;;;;;6.07;4.72;;;;;;;28.23;31.91;99619.69;12200325;19;20070;-80
2022/05/03 12:35:01;;;;;;;8.90;5.47;;;;;;;28.55;31.36;99614.69;12174285;19;20125;-80
2022/05/03 12:39:20;;;;;;;10.30;5.85;;;;;;;29.10;29.86;99614.50;12192172;19;20010;-81
2022/05/03 12:43:29;;;;;;;7.93;6.23;;;;;;;28.82;29.78;99607.09;12170256;19;20006;-81
2022/05/03 12:47:31;;;;;;;10.57;6.10;;;;;;;28.24;30.46;99601.53;12193544;19;20414;-81
2022/05/03 12:51:32;;;;;;;;;;;;;;;28.09;30.84;99594.75;12208919;19;20031;-80
2022/05/03 12:55:34;;;;;;;6.25;5.65;;;;;;;29.01;29.80;99600.56;12182475;19;19990;-81
2022/05/03 12:59:36;;;;;;;6.78;5.88;;;;;;;29.89;28.85;99599.50;12208741;19;20007;-81
2022/05/03 13:03:38;;;;;;;;;;;;;;;29.90;28.04;99590.59;12211397;19;20011;-81
2022/05/03 13:07:40;;;;;;;9.73;5.60;;;;;;;29.69;28.43;99593.16;12195391;19;19914;-81
2022/05/03 13:11:42;;;;;;;;;;;;;;;30.15;27.23;99578.72;12216959;19;20010;-81
2022/05/03 13:15:43;;;;;;;;;;;;;;;30.40;26.81;99571.34;12215588;19;19923;-80
2022/05/03 13:19:45;;;;;;;8.30;5.20;;;;;;;29.16;28.81;99582.59;12190401;19;19911;-80
2022/05/03 13:23:47;;;;;;;8.40;5.90;;;;;;;29.25;28.82;99573.81;12210836;19;20046;-80
2022/05/03 13:27:50;;;;;;;8.30;5.45;;;;;;;29.90;27.01;99578.41;12210157;19;20019;-80
2022/05/03 13:31:51;;;;;;;13.93;5.70;;;;;;;28.14;27.84;99566.94;12186073;19;20468;-79
2022/05/03 13:40:28;;;;;;;;;;;;;;;26.94;29.40;99569.44;12213433;19;20122;-79
2022/05/03 13:40:30;;;;;;;5.88;4.78;;;;;;;26.49;30.55;99559.41;12180173;19;20263;-80
2022/05/03 13:44:34;;;;;;;7.03;4.72;;;;;;;28.85;27.68;99561.81;12211687;19;20010;-79
2022/05/03 13:48:35;;;;;;;6.88;4.55;;;;;;;28.82;28.37;99565.41;12205675;19;20719;-80
2022/05/03 13:52:38;;;;;;;5.20;4.53;;;;;;;29.61;26.68;99557.31;12188198;19;20022;-79
2022/05/03 13:56:39;;;;;;;7.40;5.38;;;;;;;30.68;25.46;99557.78;12216606;19;20392;-79
2022/05/03 14:00:41;;;;;;;;;;;;;;;29.92;26.71;99558.94;12212827;19;20359;-79
2022/05/03 14:04:42;;;;;;;7.93;5.70;;;;;;;30.63;25.47;99550.41;12188152;19;19915;-78
2022/05/03 14:08:44;;;;;;;;;;;;;;;31.96;24.24;99555.06;12217575;19;20022;-79
2022/05/03 14:12:46;;;;;;;6.70;6.05;;;;;;;31.83;24.35;99550.91;12213942;19;19915;-81
2022/05/03 14:16:47;;;;;;;6.75;5.82;;;;;;;30.99;25.20;99545.06;12189932;19;20019;-80
2022/05/03 14:20:49;;;;;;;10.85;5.93;;;;;;;30.00;26.87;99548.50;12213624;19;20014;-80
2022/05/03 14:24:54;;;;;;;8.00;6.53;;;;;;;29.02;25.66;99536.97;12208829;19;20018;-80
2022/05/03 14:28:56;;;;;;;10.43;5.88;;;;;;;28.46;26.97;99544.09;12213981;19;20007;-81
2022/05/03 14:32:58;;;;;;;6.30;5.20;;;;;;;27.37;28.27;99541.41;12209727;19;20010;-80
2022/05/03 14:36:59;;;;;;;6.05;4.88;;;;;;;26.17;29.91;99544.38;12190011;19;20557;-81
2022/05/03 14:41:01;;;;;;;6.32;4.75;;;;;;;25.62;30.37;99532.72;12213573;19;20006;-80
2022/05/03 14:45:08;;;;;;;9.00;5.22;;;;;;;25.06;31.31;99534.56;12212848;19;20014;-80
2022/05/03 14:49:10;;;;;;;9.18;5.63;;;;;;;24.70;31.17;99533.38;12185115;19;20014;-79
2022/05/03 14:53:12;;;;;;;7.43;5.18;;;;;;;24.23;33.51;99533.75;12216011;19;20013;-80
2022/05/03 15:06:00;;;;;;;7.88;5.30;;;;;;;23.61;34.76;99541.91;12212147;19;20042;-80
2022/05/03 15:10:02;;;;;;;9.50;4.97;;;;;;;23.34;35.67;99540.47;12194624;19;20011;-79
2022/05/03 15:14:05;;;;;;;8.05;5.45;;;;;;;23.02;36.34;99544.81;12212399;19;20058;-79
2022/05/03 15:18:07;;;;;;;7.78;5.32;;;;;;;22.47;38.34;99540.09;12210142;19;20015;-78
2022/05/03 15:22:09;;;;;;;8.43;5.65;;;;;;;22.15;39.56;99545.09;12183319;19;20478;-79
2022/05/03 15:26:12;;;;;;;7.83;6.30;;;;;;;21.87;40.00;99553.09;12205841;19;20019;-78
2022/05/03 15:30:14;;;;;;;8.00;6.03;;;;;;;21.38;41.01;99552.41;12204193;19;20022;-79
2022/05/03 15:34:16;;;;;;;10.13;6.45;;;;;;;21.01;41.74;99559.44;12194403;19;20015;-79
2022/05/03 15:38:17;;;;;;;7.95;5.15;;;;;;;20.91;41.07;99555.78;12204388;19;20022;-79
2022/05/03 15:42:21;;;;;;;7.15;4.97;;;;;;;20.84;41.33;99552.59;12212398;19;20010;-80
2022/05/03 15:46:22;;;;;;;8.63;4.85;;;;;;;20.75;42.31;99545.34;12178204;19;20064;-78
2022/05/03 15:55:30;;;;;;;8.27;4.43;;;;;;;20.25;48.09;99557.59;12181234;19;20009;-81
2022/05/03 15:59:32;;;;;;;11.68;6.05;;;;;;;19.82;50.67;99551.72;12209653;19;20006;-83
2022/05/03 16:03:34;;;;;;;10.23;6.47;;;;;;;19.57;53.50;99554.78;12208538;19;20031;-82
2022/05/03 16:07:36;;;;;;;19.20;6.87;;;;;;;19.37;56.61;99560.84;12170829;19;20547;-79
2022/05/03 16:11:38;;;;;;;9.27;7.00;;;;;;;19.25;60.44;99555.00;12196821;19;20007;-79
2022/05/03 16:15:42;;;;;;;11.90;9.38;;;;;;;19.34;62.69;99551.13;12211382;19;20106;-82
2022/05/03 16:19:43;;;;;;;9.82;7.43;;;;;;;19.38;63.68;99550.50;12179248;19;20031;-82
2022/05/03 16:23:45;;;;;;;7.78;6.82;;;;;;;19.42;63.82;99543.94;12208991;19;20388;-82
2022/05/03 16:27:47;;;;;;;7.68;6.38;;;;;;;19.43;65.59;99542.81;12201281;19;20010;-81
2022/05/03 16:31:50;;;;;;;9.50;6.63;;;;;;;19.51;64.27;99542.09;12179292;19;20029;-80
2022/05/03 16:35:51;;;;;;;;;;;;;;;19.58;65.80;99544.44;12203411;19;20799;-82
2022/05/03 16:44:40;;;;;;;6.85;4.70;;;;;;;20.00;55.88;99542.31;12200711;19;20086;-81
2022/05/03 16:48:43;;;;;;;7.82;5.38;;;;;;;20.14;54.74;99540.25;12197876;19;20019;-81
2022/05/03 16:52:46;;;;;;;8.23;5.27;;;;;;;20.40;53.57;99547.94;12182369;19;20014;-81
2022/05/03 16:56:49;;;;;;;8.60;5.18;;;;;;;20.46;51.15;99552.25;12204498;19;20247;-80
2022/05/03 17:00:51;;;;;;;6.32;5.28;;;;;;;20.50;51.85;99553.28;12201259;19;20465;-81
2022/05/03 17:04:52;;;;;;;5.63;4.97;;;;;;;20.47;50.40;99554.75;12212148;19;20031;-80
2022/05/03 17:08:55;;;;;;;6.30;5.10;;;;;;;20.35;48.41;99551.72;12215985;19;20077;-79
2022/05/03 17:12:57;;;;;;;8.48;4.85;;;;;;;20.33;50.03;99551.22;12182274;19;20002;-78
2022/05/03 17:16:58;;;;;;;5.93;4.57;;;;;;;20.41;49.76;99561.63;12201273;19;21294;-81
2022/05/03 17:21:00;;;;;;;6.40;4.80;;;;;;;20.40;49.16;99557.16;12201370;19;20019;-79
2022/05/03 17:25:02;;;;;;;6.38;4.47;;;;;;;20.53;50.00;99560.25;12182943;19;20006;-79
2022/05/03 17:29:05;;;;;;;8.60;6.27;;;;;;;20.51;51.49;99571.72;12198835;19;20028;-80
2022/05/03 17:33:07;;;;;;;6.55;5.45;;;;;;;20.50;50.39;99572.88;12189507;19;20090;-80
2022/05/03 17:37:09;;;;;;;6.60;4.85;;;;;;;20.46;50.16;99569.91;12171777;19;20028;-79
2022/05/03 17:41:12;;;;;;;4.85;4.30;;;;;;;20.37;49.41;99568.19;12194086;19;20003;-79
2022/05/03 17:45:14;;;;;;;7.03;5.35;;;;;;;20.32;49.75;99573.94;12192873;19;20488;-79
2022/05/03 17:49:31;;;;;;;5.18;4.38;;;;;;;20.15;50.37;99580.25;12182489;19;20591;-81
2022/05/03 17:57:54;;;;;;;6.18;4.70;;;;;;;19.77;51.67;99580.63;12186409;19;20018;-80
2022/05/03 18:01:56;;;;;;;6.88;5.47;;;;;;;19.58;53.06;99576.00;12205189;19;20030;-80
2022/05/03 18:06:02;;;;;;;7.82;5.10;;;;;;;19.39;52.97;99578.09;12209981;19;20509;-80
2022/05/03 18:10:08;;;;;;;7.78;6.03;;;;;;;19.22;52.05;99575.16;12198112;19;20018;-80
2022/05/03 18:14:10;;;;;;;8.73;5.70;;;;;;;19.04;51.53;99588.13;12209348;19;20025;-79
2022/05/03 18:18:12;;;;;;;7.25;5.20;;;;;;;18.87;52.13;99591.53;12198526;19;20082;-81
2022/05/03 18:22:14;;;;;;;;;;;;;;;18.71;52.09;99592.94;12184590;19;20042;-81
2022/05/03 18:26:16;;;;;;;6.50;4.78;;;;;;;18.57;52.36;99590.16;12206546;19;20272;-80
2022/05/03 18:30:22;;;;;;;7.45;5.35;;;;;;;18.41;53.51;99604.38;12204760;19;20019;-80
2022/05/03 18:34:24;;;;;;;12.70;5.35;;;;;;;18.27;54.04;99603.53;12176223;19;20098;-79
2022/05/03 18:38:26;;;;;;;6.53;5.27;;;;;;;18.10;54.42;99604.09;12200748;19;20789;-80
2022/05/03 18:42:28;;;;;;;7.15;4.82;;;;;;;17.96;54.50;99609.59;12204534;19;20017;-78
2022/05/03 18:46:30;;;;;;;7.03;5.03;;;;;;;17.84;56.14;99608.41;12181576;19;20028;-79
2022/05/03 18:50:32;;;;;;;7.27;4.80;;;;;;;17.70;57.68;99609.16;12198769;19;20027;-80
2022/05/03 18:58:56;;;;;;;9.25;6.38;;;;;;;17.41;58.66;99616.84;12178566;19;20039;-80
2022/05/03 19:03:00;;;;;;;7.72;5.68;;;;;;;17.28;58.95;99619.25;12195394;19;20013;-80
2022/05/03 19:07:06;;;;;;;7.38;6.07;;;;;;;17.15;60.10;99622.75;12190161;19;20523;-80
2022/05/03 19:11:24;;;;;;;8.30;5.72;;;;;;;17.03;60.52;99630.69;12208908;19;20015;-79
2022/05/03 19:15:26;;;;;;;8.07;5.82;;;;;;;16.92;61.09;99637.50;12204419;19;20010;-80
2022/05/03 19:19:28;;;;;;;9.47;6.27;;;;;;;16.82;61.40;99641.25;12185171;19;20011;-80
2022/05/03 19:23:30;;;;;;;8.73;6.00;;;;;;;16.73;61.81;99646.59;12199963;19;20018;-80
2022/05/03 19:31:54;;;;;;;7.10;5.53;;;;;;;16.48;63.14;99653.25;12186013;19;20078;-80
2022/05/03 19:36:01;;;;;;;6.70;4.82;;;;;;;16.33;63.14;99657.00;12200892;19;20007;-80
2022/05/03 19:40:04;;;;;;;9.25;5.50;;;;;;;16.24;63.26;99663.47;12177208;19;20019;-81
2022/05/03 19:44:05;;;;;;;8.75;5.78;;;;;;;16.11;64.40;99668.56;12209582;19;20018;-79
2022/05/03 19:48:09;;;;;;;11.27;5.97;;;;;;;16.03;65.25;99680.31;12204076;19;20382;-79
2022/05/03 19:52:10;;;;;;;6.38;5.38;;;;;;;15.97;65.97;99683.41;12187902;19;20047;-79
2022/05/03 19:56:12;;;;;;;8.20;4.93;;;;;;;15.92;66.03;99690.69;12197323;19;20014;-80
2022/05/03 20:00:14;;;;;;;8.20;5.15;;;;;;;15.87;67.07;99678.75;12203397;19;20007;-80
2022/05/03 20:04:17;;;;;;;9.03;5.80;;;;;;;15.86;66.85;99686.28;12188117;19;20078;-80